Time;durP1;ratioP1;P1;durP2;ratioP2;P2;SDS_P1;SDS_P2;PMS_P1;PMS_P2;Temp;Humidity;BMP_temperature;BMP_pressure;BME280_temperature;BME280_humidity;BME280_pressure;Samples;Min_cycle;Max_cycle;Signal;HPM_P1;HPM_P2
2022/07/29 00:09:12;;;;;;;8.13;6.82;;;30.00;29.30;;;;;;21251552;27;20055;-56
2022/07/29 00:19:13;;;;;;;6.75;5.20;;;29.70;29.70;;;;;;21262264;27;20089;-55
2022/07/29 00:29:15;;;;;;;4.45;3.58;;;29.60;29.80;;;;;;21261834;27;20057;-56
2022/07/29 00:39:17;;;;;;;5.18;2.53;;;29.60;29.60;;;;;;21260989;27;20058;-55
2022/07/29 00:49:19;;;;;;;3.78;2.70;;;29.40;29.90;;;;;;21259902;27;20112;-56
2022/07/29 00:59:20;;;;;;;3.85;2.50;;;29.30;30.00;;;;;;21258665;27;20039;-58
2022/07/29 01:09:22;;;;;;;5.10;3.45;;;29.10;30.20;;;;;;21257874;27;20086;-55
2022/07/29 01:19:57;;;;;;;6.20;2.95;;;29.10;30.40;;;;;;21257225;27;20051;-55
2022/07/29 01:30:01;;;;;;;3.28;2.90;;;29.30;30.20;;;;;;20911198;28;20138;-55
2022/07/29 01:40:11;;;;;;;4.03;2.72;;;29.20;30.20;;;;;;20910854;28;20106;-56
2022/07/29 01:50:17;;;;;;;6.82;3.35;;;29.10;30.40;;;;;;20909791;28;20053;-55
2022/07/29 02:00:22;;;;;;;6.72;4.20;;;28.90;30.80;;;;;;20981301;27;20095;-57
2022/07/29 02:10:31;;;;;;;5.22;3.70;;;28.90;30.80;;;;;;21253147;27;20051;-55
2022/07/29 02:20:40;;;;;;;5.03;4.07;;;28.80;31.30;;;;;;21253073;27;20475;-55
2022/07/29 02:30:43;;;;;;;9.63;4.55;;;28.60;31.60;;;;;;21251733;27;20069;-55
2022/07/29 02:40:46;;;;;;;7.50;4.82;;;28.40;33.30;;;;;;21250740;27;20061;-56
2022/07/29 02:50:52;;;;;;;8.23;5.10;;;27.90;33.70;;;;;;21250996;27;20051;-56
2022/07/29 03:00:58;;;;;;;5.85;4.63;;;27.60;34.30;;;;;;21249384;27;20043;-56
2022/07/29 03:11:01;;;;;;;5.75;4.18;;;27.30;34.40;;;;;;21249229;27;20511;-56
2022/07/29 03:21:04;;;;;;;9.52;4.20;;;27.20;34.60;;;;;;21228756;27;20066;-55
2022/07/29 03:31:07;;;;;;;9.13;4.93;;;27.10;35.00;;;;;;21248420;27;20174;-54
2022/07/29 03:41:11;;;;;;;8.25;3.78;;;27.10;35.30;;;;;;21247381;27;20055;-55
2022/07/29 03:51:13;;;;;;;8.18;3.20;;;27.20;36.30;;;;;;21263981;27;20128;-55
2022/07/29 04:01:17;;;;;;;6.82;3.45;;;27.30;37.50;;;;;;21264694;27;20455;-54
2022/07/29 04:11:20;;;;;;;5.50;3.88;;;27.30;36.30;;;;;;21262696;27;20047;-54
2022/07/29 04:21:21;;;;;;;7.57;4.32;;;27.10;36.30;;;;;;21262961;27;20039;-56
2022/07/29 04:31:24;;;;;;;5.25;3.70;;;26.80;37.10;;;;;;21260886;27;20043;-56
2022/07/29 04:41:26;;;;;;;8.07;4.68;;;26.50;37.60;;;;;;21256557;27;20263;-57
2022/07/29 04:51:27;;;;;;;8.27;3.92;;;26.30;38.00;;;;;;21254509;28;20103;-55
2022/07/29 05:01:29;;;;;;;17.33;4.78;;;26.20;38.20;;;;;;21253442;27;20047;-55
2022/07/29 05:11:31;;;;;;;;;;;26.20;38.90;;;;;;21253975;28;20055;-55
2022/07/29 05:21:32;;;;;;;7.33;3.20;;;26.10;38.50;;;;;;21253423;28;19920;-55
2022/07/29 05:31:34;;;;;;;7.20;3.75;;;26.10;38.70;;;;;;21252992;28;20047;-55
2022/07/29 05:41:35;;;;;;;7.72;3.67;;;26.10;38.80;;;;;;21210519;27;1250333;-55
2022/07/29 05:51:37;;;;;;;;;;;26.20;39.30;;;;;;21256268;27;20391;-54
2022/07/29 06:01:41;;;;;;;7.20;3.78;;;26.30;39.00;;;;;;21236019;27;19926;-54
2022/07/29 06:11:43;;;;;;;9.32;4.05;;;25.90;37.80;;;;;;21252709;27;20055;-54
2022/07/29 06:21:45;;;;;;;;;;;25.70;38.40;;;;;;21253844;27;20192;-54
2022/07/29 06:31:47;;;;;;;6.93;3.67;;;25.70;38.50;;;;;;21252053;27;19929;-55
2022/07/29 06:41:50;;;;;;;13.60;5.07;;;26.00;38.70;;;;;;21250691;27;20486;-54
2022/07/29 06:51:52;;;;;;;11.90;4.78;;;26.10;38.90;;;;;;21249603;27;20051;-56
2022/07/29 07:01:54;;;;;;;16.58;3.78;;;26.80;38.10;;;;;;21249307;27;20043;-55
2022/07/29 07:11:55;;;;;;;7.05;3.60;;;27.60;37.70;;;;;;21248192;27;20054;-54
2022/07/29 07:21:57;;;;;;;9.43;3.58;;;28.20;37.00;;;;;;21248265;27;20039;-56
2022/07/29 07:31:58;;;;;;;10.73;3.47;;;28.70;36.50;;;;;;21249179;27;20055;-54
2022/07/29 07:42:01;;;;;;;10.63;3.40;;;29.20;36.60;;;;;;21247466;28;20506;-55
2022/07/29 07:52:04;;;;;;;10.25;4.47;;;29.60;35.40;;;;;;21247306;28;20047;-56
2022/07/29 08:02:06;;;;;;;13.13;4.05;;;29.90;35.30;;;;;;21248264;28;20039;-56
2022/07/29 08:12:07;;;;;;;8.73;3.28;;;30.30;34.60;;;;;;21246568;28;20055;-55
2022/07/29 08:22:09;;;;;;;11.30;4.20;;;30.60;34.30;;;;;;21245958;28;20047;-56
2022/07/29 08:32:11;;;;;;;11.60;3.30;;;30.80;33.80;;;;;;21254246;27;20076;-56
2022/07/29 08:42:13;;;;;;;14.48;3.78;;;31.10;33.70;;;;;;21260349;27;20057;-57
2022/07/29 08:52:16;;;;;;;13.15;3.70;;;31.10;33.50;;;;;;21259604;27;20051;-56
2022/07/29 09:02:22;;;;;;;13.23;4.57;;;31.30;33.40;;;;;;21258770;27;20451;-55
2022/07/29 09:12:24;;;;;;;8.05;3.78;;;31.70;32.80;;;;;;21257695;27;20077;-55
2022/07/29 09:22:31;;;;;;;9.85;3.30;;;31.80;32.50;;;;;;21256740;27;20054;-56
2022/07/29 09:32:53;;;;;;;9.35;4.15;;;32.10;31.70;;;;;;21256087;27;20139;-57
2022/07/29 09:42:57;;;;;;;8.85;3.85;;;32.20;31.40;;;;;;21254210;27;20054;-55
2022/07/29 09:52:59;;;;;;;13.00;4.22;;;32.30;30.30;;;;;;21254199;27;20096;-56
2022/07/29 10:03:02;;;;;;;10.57;4.65;;;32.40;30.60;;;;;;21254354;27;20415;-56
2022/07/29 10:13:14;;;;;;;8.18;4.53;;;32.60;29.80;;;;;;21252844;27;20051;-55
2022/07/29 10:23:16;;;;;;;8.25;5.80;;;32.90;29.30;;;;;;21251818;27;20096;-56
2022/07/29 10:33:39;;;;;;;11.05;8.35;;;33.10;27.60;;;;;;21251527;27;20068;-55
2022/07/29 10:43:44;;;;;;;5.55;2.92;;;33.40;27.40;;;;;;21249976;27;20051;-53
2022/07/29 10:53:51;;;;;;;24.15;5.80;;;33.40;27.00;;;;;;21249910;27;20077;-56
2022/07/29 11:03:55;;;;;;;8.75;3.97;;;33.50;27.60;;;;;;21249365;27;20061;-55
2022/07/29 11:13:57;;;;;;;5.28;2.33;;;33.60;26.20;;;;;;21248993;27;20051;-55
2022/07/29 11:24:32;;;;;;;3.60;2.20;;;33.80;25.10;;;;;;21249590;27;20082;-56
2022/07/29 11:34:35;;;;;;;3.83;2.83;;;34.00;24.20;;;;;;21246836;27;20075;-56
2022/07/29 11:44:58;;;;;;;2.95;1.58;;;33.90;24.40;;;;;;21247430;28;20150;-57
2022/07/29 11:55:02;;;;;;;2.70;2.20;;;34.30;22.70;;;;;;21246047;28;20047;-55
2022/07/29 12:05:04;;;;;;;3.42;2.00;;;34.00;23.80;;;;;;21250720;27;20084;-55
2022/07/29 12:15:19;;;;;;;2.30;1.52;;;34.10;22.80;;;;;;21261819;27;20199;-56
2022/07/29 12:25:23;;;;;;;5.10;1.70;;;34.60;22.00;;;;;;21260577;27;20047;-56
2022/07/29 12:35:25;;;;;;;5.70;2.45;;;34.80;21.80;;;;;;21259906;27;20047;-55
2022/07/29 12:45:31;;;;;;;2.38;1.48;;;34.90;22.50;;;;;;21259765;27;20471;-56
2022/07/29 12:55:48;;;;;;;2.75;1.90;;;35.10;21.70;;;;;;21259489;27;20107;-56
2022/07/29 13:05:50;;;;;;;4.20;1.70;;;35.00;22.00;;;;;;21257881;27;20050;-55
2022/07/29 13:16:07;;;;;;;3.83;1.27;;;35.30;21.20;;;;;;21237803;27;20095;-56
2022/07/29 13:26:11;;;;;;;2.65;1.38;;;35.20;21.00;;;;;;21255522;27;20051;-56
2022/07/29 13:36:13;;;;;;;8.57;6.18;;;35.40;21.20;;;;;;21247384;27;20120;-56
2022/07/29 13:46:15;;;;;;;4.75;1.20;;;35.60;20.60;;;;;;21254645;27;20384;-55
2022/07/29 13:56:17;;;;;;;2.80;0.88;;;35.60;19.70;;;;;;21253991;27;20070;-56
2022/07/29 14:06:19;;;;;;;1.77;0.90;;;35.60;19.20;;;;;;21252224;27;20050;-55
2022/07/29 14:16:20;;;;;;;2.22;1.00;;;35.70;19.40;;;;;;21251878;27;20047;-57
2022/07/29 14:26:22;;;;;;;2.40;0.95;;;35.60;19.00;;;;;;21231644;27;20100;-57
2022/07/29 14:36:24;;;;;;;1.38;0.77;;;35.90;19.20;;;;;;21250042;27;20043;-55
2022/07/29 14:46:26;;;;;;;4.53;2.50;;;35.90;18.80;;;;;;21251096;27;20058;-55
2022/07/29 14:56:29;;;;;;;5.88;4.13;;;36.10;18.40;;;;;;21249889;27;20422;-55
2022/07/29 15:06:31;;;;;;;4.78;1.48;;;36.00;18.70;;;;;;21250126;27;20407;-57
2022/07/29 15:16:36;;;;;;;2.88;1.50;;;36.10;17.60;;;;;;21248163;27;20047;-54
2022/07/29 15:26:38;;;;;;;4.65;1.95;;;36.10;17.70;;;;;;21247800;27;20439;-55
2022/07/29 15:36:40;;;;;;;3.33;1.55;;;36.10;17.40;;;;;;21230909;27;20054;-55
2022/07/29 15:57:02;;;;;;;5.60;2.10;;;36.10;17.80;;;;;;21264194;27;20543;-61
2022/07/29 16:07:04;;;;;;;2.33;1.13;;;36.10;17.70;;;;;;21264017;27;20051;-55
2022/07/29 16:17:06;;;;;;;5.70;1.67;;;35.50;16.20;;;;;;21262975;27;20415;-59
2022/07/29 16:27:07;;;;;;;7.03;1.40;;;35.70;16.20;;;;;;21261700;27;20075;-54
2022/07/29 16:37:09;;;;;;;6.53;1.35;;;35.50;15.40;;;;;;21260716;27;20099;-58
2022/07/29 16:47:10;;;;;;;3.97;1.40;;;35.60;15.90;;;;;;21261181;27;20380;-55
2022/07/29 16:57:12;;;;;;;5.00;1.50;;;35.50;16.00;;;;;;21240806;27;20047;-56
2022/07/29 17:07:14;;;;;;;4.82;1.83;;;35.60;15.90;;;;;;21259675;27;20044;-56
2022/07/29 17:17:16;;;;;;;5.28;3.22;;;35.50;16.30;;;;;;21258107;27;20051;-56
2022/07/29 17:27:18;;;;;;;3.40;0.88;;;35.50;15.80;;;;;;21258052;27;20061;-56
2022/07/29 17:37:20;;;;;;;6.28;1.70;;;35.60;15.70;;;;;;21255892;27;20417;-54
2022/07/29 17:47:22;;;;;;;4.55;1.38;;;35.30;16.70;;;;;;21254970;27;20111;-56
2022/07/29 17:57:23;;;;;;;4.18;1.77;;;35.30;15.80;;;;;;21254579;27;20062;-56
2022/07/29 18:07:25;;;;;;;3.28;1.10;;;35.20;15.80;;;;;;21252552;27;20070;-56
2022/07/29 18:17:27;;;;;;;4.57;1.40;;;35.20;16.10;;;;;;21252923;27;20276;-56
2022/07/29 18:27:28;;;;;;;27.60;24.75;;;35.00;16.70;;;;;;21252405;27;20150;-54
2022/07/29 18:37:30;;;;;;;4.50;2.05;;;35.00;17.10;;;;;;21251384;27;20047;-58
2022/07/29 18:47:32;;;;;;;3.28;1.35;;;35.10;16.20;;;;;;21250070;27;20130;-56
2022/07/29 18:57:33;;;;;;;2.95;1.30;;;35.10;16.60;;;;;;21250425;27;20534;-56
2022/07/29 19:07:35;;;;;;;4.35;1.30;;;34.90;16.50;;;;;;21249579;27;20058;-57
2022/07/29 19:17:37;;;;;;;3.05;1.50;;;34.80;17.00;;;;;;21247667;27;20460;-55
2022/07/29 19:27:39;;;;;;;4.30;1.52;;;34.60;17.20;;;;;;21248350;27;20483;-57
2022/07/29 19:37:41;;;;;;;5.28;2.10;;;34.40;17.60;;;;;;21247387;27;20054;-57
2022/07/29 19:47:43;;;;;;;7.63;5.20;;;34.10;18.20;;;;;;21248269;28;20043;-58
2022/07/29 19:57:45;;;;;;;5.40;2.60;;;34.00;18.40;;;;;;21246704;28;20067;-55
2022/07/29 20:07:47;;;;;;;5.97;4.18;;;33.80;19.00;;;;;;21247051;28;20051;-56
2022/07/29 20:17:48;;;;;;;4.90;3.10;;;33.60;19.30;;;;;;21246302;28;20363;-57
2022/07/29 20:27:53;;;;;;;3.75;2.10;;;33.50;19.50;;;;;;21253955;27;20059;-55
2022/07/29 20:37:55;;;;;;;4.63;2.10;;;33.40;19.70;;;;;;21261354;27;20094;-56
2022/07/29 20:47:57;;;;;;;5.80;2.78;;;33.30;19.80;;;;;;21242057;27;20047;-56
2022/07/29 20:57:58;;;;;;;4.05;1.95;;;33.20;20.00;;;;;;21259631;27;20183;-57
2022/07/29 21:08:00;;;;;;;5.80;2.70;;;33.10;20.20;;;;;;21258959;27;20050;-56
2022/07/29 21:18:03;;;;;;;5.28;2.88;;;33.00;20.90;;;;;;21258019;27;20043;-56
2022/07/29 21:38:25;;;;;;;4.90;3.50;;;32.80;22.00;;;;;;21256967;27;20047;-56
2022/07/29 21:48:27;;;;;;;8.02;3.85;;;32.50;22.90;;;;;;21255527;27;20086;-54
2022/07/29 21:58:29;;;;;;;6.70;2.65;;;32.10;23.30;;;;;;21255663;27;20047;-55
2022/07/29 22:08:30;;;;;;;11.07;2.80;;;31.90;24.00;;;;;;21254041;27;20047;-57
2022/07/29 22:18:32;;;;;;;4.75;2.42;;;31.70;29.70;;;;;;21252824;27;20054;-55
2022/07/29 22:28:33;;;;;;;5.43;2.17;;;31.30;31.80;;;;;;21252436;27;20047;-55
2022/07/29 22:38:35;;;;;;;6.05;2.28;;;30.70;33.90;;;;;;21251872;27;20537;-54
2022/07/29 22:48:37;;;;;;;8.00;2.00;;;30.30;35.00;;;;;;21231329;27;20098;-57
2022/07/29 22:58:38;;;;;;;8.77;2.10;;;30.00;36.00;;;;;;21250072;27;20066;-56
2022/07/29 23:08:40;;;;;;;8.88;1.98;;;29.60;36.80;;;;;;21248946;27;20047;-58
2022/07/29 23:18:42;;;;;;;2.97;1.70;;;29.50;37.20;;;;;;21249006;27;20066;-57
2022/07/29 23:28:44;;;;;;;4.80;2.10;;;29.20;37.80;;;;;;21248483;27;20055;-57
2022/07/29 23:38:46;;;;;;;5.93;1.92;;;28.90;38.40;;;;;;21247714;27;20138;-58
2022/07/29 23:48:48;;;;;;;3.17;1.95;;;28.60;38.90;;;;;;21247295;28;20092;-55
2022/07/29 23:58:50;;;;;;;5.22;2.08;;;28.40;39.40;;;;;;21249827;27;20058;-54
